Time;durP1;ratioP1;P1;durP2;ratioP2;P2;SDS_P1;SDS_P2;PMS_P1;PMS_P2;Temp;Humidity;BMP_temperature;BMP_pressure;BME280_temperature;BME280_humidity;BME280_pressure;Samples;Min_cycle;Max_cycle;Signal;HPM_P1;HPM_P2
2021/06/10 00:01:38;;;;;;;7.68;3.17;;;;;;;16.83;66.74;102123.94;5118318;27;20455;-53
2021/06/10 00:04:05;;;;;;;7.78;3.47;;;;;;;16.81;66.79;102118.75;5117856;27;20043;-50
2021/06/10 00:06:32;;;;;;;6.95;3.33;;;;;;;16.76;66.63;102120.03;5118177;27;20130;-51
2021/06/10 00:08:58;;;;;;;5.25;2.67;;;;;;;16.69;67.91;102117.81;5118358;27;20032;-58
2021/06/10 00:11:25;;;;;;;7.40;3.47;;;;;;;16.64;67.89;102113.78;5136371;27;20366;-51
2021/06/10 00:13:52;;;;;;;6.88;2.97;;;;;;;16.62;67.34;102108.59;5136198;27;20722;-52
2021/06/10 00:16:19;;;;;;;5.70;2.70;;;;;;;16.54;66.91;102116.25;5118036;27;20506;-58
2021/06/10 00:18:51;;;;;;;5.82;2.90;;;;;;;16.54;67.70;102108.28;5117783;27;20741;-60
2021/06/10 00:21:18;;;;;;;5.80;3.13;;;;;;;16.46;67.22;102108.81;5118051;27;20047;-52
2021/06/10 00:23:45;;;;;;;5.53;2.75;;;;;;;16.42;67.93;102111.81;5117706;27;20054;-58
2021/06/10 00:26:12;;;;;;;6.45;2.72;;;;;;;16.39;67.99;102115.53;5117553;27;20485;-52
2021/06/10 00:28:39;;;;;;;5.50;2.80;;;;;;;16.30;67.97;102109.03;5135984;27;20068;-50
2021/06/10 00:31:06;;;;;;;5.53;2.88;;;;;;;16.35;67.20;102109.56;5117633;27;20042;-58
2021/06/10 00:33:33;;;;;;;5.20;3.00;;;;;;;16.37;67.33;102105.00;5135739;27;20387;-51
2021/06/10 00:35:59;;;;;;;7.15;2.92;;;;;;;16.37;67.27;102106.81;5135911;27;20047;-59
2021/06/10 00:38:27;;;;;;;5.57;2.85;;;;;;;16.27;67.99;102103.94;5135876;27;20602;-58
2021/06/10 00:40:54;;;;;;;6.95;3.00;;;;;;;16.27;68.05;102111.06;5135618;27;20096;-58
2021/06/10 00:43:21;;;;;;;5.85;2.90;;;;;;;16.31;68.48;102104.59;5135787;27;20104;-58
2021/06/10 00:45:47;;;;;;;5.40;2.75;;;;;;;16.15;68.83;102096.84;5135368;27;20043;-58
2021/06/10 00:48:14;;;;;;;5.40;3.17;;;;;;;16.15;68.54;102096.84;5135397;27;20055;-51
2021/06/10 00:50:44;;;;;;;5.40;3.17;;;;;;;16.15;68.95;102097.66;5135713;27;20394;-49
2021/06/10 00:53:21;;;;;;;6.10;2.97;;;;;;;16.08;68.82;102101.72;5135488;27;20550;-52
2021/06/10 00:55:51;;;;;;;4.90;2.70;;;;;;;16.01;68.89;102100.44;5118484;27;20047;-52
2021/06/10 00:58:18;;;;;;;6.20;3.00;;;;;;;16.05;68.97;102101.94;5135250;27;20051;-59
2021/06/10 01:00:45;;;;;;;6.45;2.97;;;;;;;15.97;69.41;102098.94;5116991;27;20043;-52
2021/06/10 01:03:12;;;;;;;4.95;2.53;;;;;;;15.86;69.97;102097.88;5135481;27;20054;-49
2021/06/10 01:05:40;;;;;;;5.63;3.17;;;;;;;15.84;70.25;102098.91;5117042;27;20074;-51
2021/06/10 01:08:15;;;;;;;6.28;2.90;;;;;;;15.88;70.18;102100.41;5100526;27;20051;-51
2021/06/10 01:10:50;;;;;;;8.48;3.10;;;;;;;15.91;69.75;102094.91;5135059;27;20039;-50
2021/06/10 01:13:18;;;;;;;6.35;2.90;;;;;;;15.82;70.41;102091.06;5116976;27;20043;-58
2021/06/10 01:15:48;;;;;;;6.38;3.00;;;;;;;15.90;70.71;102101.16;5135137;27;20447;-58
2021/06/10 01:18:15;;;;;;;4.55;2.47;;;;;;;15.83;70.06;102095.44;5127901;27;20050;-58
2021/06/10 01:20:43;;;;;;;6.22;3.15;;;;;;;15.68;70.54;102094.63;5130248;27;20043;-58
2021/06/10 01:23:22;;;;;;;4.95;2.80;;;;;;;15.61;70.97;102108.38;5117086;27;20047;-58
2021/06/10 01:26:08;;;;;;;5.82;3.30;;;;;;;15.63;70.61;102091.44;5129855;27;20500;-58
2021/06/10 01:28:36;;;;;;;6.22;2.97;;;;;;;15.62;69.38;102084.41;5137480;27;20054;-58
2021/06/10 01:31:07;;;;;;;7.07;3.35;;;;;;;15.51;68.40;102092.25;5123639;27;20393;-49
2021/06/10 01:33:41;;;;;;;6.43;2.95;;;;;;;15.49;68.73;102089.69;5134725;27;20151;-49
2021/06/10 01:36:17;;;;;;;4.72;2.83;;;;;;;15.52;69.12;102086.84;5148168;27;20056;-52
2021/06/10 01:38:50;;;;;;;5.68;3.22;;;;;;;15.48;69.07;102093.28;5119925;27;20050;-48
2021/06/10 01:41:19;;;;;;;5.50;3.38;;;;;;;15.43;69.33;102097.22;5121190;27;20501;-59
2021/06/10 01:43:47;;;;;;;5.85;3.05;;;;;;;15.43;69.93;102097.22;5099553;27;20051;-59
2021/06/10 01:46:15;;;;;;;5.35;2.80;;;;;;;15.37;70.58;102099.31;5134516;27;20054;-58
2021/06/10 01:48:47;;;;;;;6.18;2.90;;;;;;;15.27;71.28;102094.69;5099359;27;20202;-59
2021/06/10 01:51:15;;;;;;;5.78;3.20;;;;;;;15.22;71.64;102092.38;5116233;27;20047;-50
2021/06/10 01:53:44;;;;;;;6.82;3.10;;;;;;;15.19;71.45;102093.41;5116054;27;20046;-58
2021/06/10 01:56:12;;;;;;;5.22;3.05;;;;;;;15.21;71.39;102088.88;5097436;27;20062;-51
2021/06/10 01:58:39;;;;;;;6.03;2.90;;;;;;;15.24;71.48;102090.44;5075381;28;20051;-59
2021/06/10 02:01:07;;;;;;;5.43;2.67;;;;;;;15.24;71.58;102092.25;5092496;28;20048;-50
2021/06/10 02:03:35;;;;;;;7.00;3.30;;;;;;;15.15;71.62;102094.56;5091840;28;20079;-52
2021/06/10 02:06:02;;;;;;;5.95;3.35;;;;;;;15.13;72.40;102085.84;5091957;28;20047;-59
2021/06/10 02:08:29;;;;;;;5.20;3.15;;;;;;;15.06;72.85;102086.38;5093274;28;20532;-50
2021/06/10 02:10:58;;;;;;;5.38;3.13;;;;;;;15.06;72.57;102089.00;5083524;28;20036;-52
2021/06/10 02:13:27;;;;;;;7.30;3.40;;;;;;;15.11;72.28;102089.56;5094071;28;20093;-50
2021/06/10 02:15:57;;;;;;;7.20;3.35;;;;;;;15.11;72.42;102077.16;5093094;28;20040;-52
2021/06/10 02:18:24;;;;;;;7.18;3.67;;;;;;;15.06;72.82;102081.06;5091974;28;20046;-52
2021/06/10 02:20:51;;;;;;;6.30;3.40;;;;;;;14.99;73.05;102084.09;5093056;28;20047;-50
2021/06/10 02:23:18;;;;;;;7.47;3.65;;;;;;;15.04;73.47;102087.31;5093019;28;20407;-58
2021/06/10 02:25:45;;;;;;;8.25;3.83;;;;;;;15.02;73.24;102077.75;5091473;28;20047;-58
2021/06/10 02:28:12;;;;;;;9.43;3.90;;;;;;;14.99;73.01;102080.59;5074597;28;20056;-59
2021/06/10 02:30:39;;;;;;;7.93;3.78;;;;;;;14.94;73.13;102078.25;5092691;28;20399;-50
2021/06/10 02:33:05;;;;;;;7.05;3.80;;;;;;;14.95;73.34;102079.09;5092842;28;20122;-51
2021/06/10 02:35:32;;;;;;;7.90;4.15;;;;;;;14.90;73.67;102068.78;5091491;28;20399;-52
2021/06/10 02:38:02;;;;;;;7.47;4.22;;;;;;;14.89;74.06;102069.75;5091383;28;20051;-52
2021/06/10 02:40:42;;;;;;;7.32;4.38;;;;;;;14.86;73.84;102070.81;5091239;28;20044;-59
2021/06/10 02:43:09;;;;;;;7.38;3.80;;;;;;;14.87;73.30;102063.69;5091398;28;20047;-59
2021/06/10 02:45:37;;;;;;;8.50;4.65;;;;;;;14.89;74.10;102069.75;5074541;28;20040;-58
2021/06/10 02:48:05;;;;;;;7.30;4.90;;;;;;;14.80;74.29;102062.41;5092589;28;20044;-58
2021/06/10 02:50:32;;;;;;;8.30;5.47;;;;;;;14.76;74.95;102067.03;5091282;28;20036;-59
2021/06/10 02:52:59;;;;;;;9.63;5.57;;;;;;;14.81;74.13;102066.75;5091098;28;20040;-59
2021/06/10 02:55:28;;;;;;;8.52;5.40;;;;;;;14.83;74.18;102070.13;5091067;28;20051;-59
2021/06/10 02:57:57;;;;;;;8.68;5.00;;;;;;;14.85;74.19;102057.66;5074510;28;20056;-50
2021/06/10 03:00:27;;;;;;;7.88;4.82;;;;;;;14.80;74.34;102055.28;5092710;28;20048;-48
2021/06/10 03:02:55;;;;;;;9.32;5.85;;;;;;;14.77;74.67;102055.50;5091334;28;20053;-49
2021/06/10 03:05:24;;;;;;;8.68;4.68;;;;;;;14.83;73.97;102049.81;5091449;28;20074;-59
2021/06/10 03:07:52;;;;;;;10.27;5.75;;;;;;;14.72;74.63;102047.00;5091092;28;20094;-59
2021/06/10 03:10:26;;;;;;;8.45;5.55;;;;;;;14.69;75.10;102063.06;5091084;28;20044;-59
2021/06/10 03:12:54;;;;;;;8.18;5.28;;;;;;;14.67;74.83;102060.53;5094756;28;20510;-59
2021/06/10 03:15:21;;;;;;;9.30;4.70;;;;;;;14.69;74.76;102057.78;5096479;28;20044;-59
2021/06/10 03:17:48;;;;;;;9.02;5.78;;;;;;;14.71;74.95;102045.28;5094883;28;20045;-59
2021/06/10 03:20:16;;;;;;;8.52;5.00;;;;;;;14.60;75.09;102043.31;5078284;28;20052;-59
2021/06/10 03:22:43;;;;;;;10.02;5.72;;;;;;;14.63;75.29;102053.72;5096302;28;20051;-59
2021/06/10 03:25:10;;;;;;;8.57;4.50;;;;;;;14.64;74.93;102052.78;5096123;28;20110;-58
2021/06/10 03:27:37;;;;;;;8.18;4.80;;;;;;;14.58;75.01;102047.00;5094430;28;20097;-51
2021/06/10 03:30:08;;;;;;;8.70;4.97;;;;;;;14.53;75.17;102042.84;5095556;28;20508;-52
2021/06/10 03:32:35;;;;;;;9.23;4.72;;;;;;;14.46;75.25;102040.66;5078027;28;20040;-50
2021/06/10 03:35:03;;;;;;;9.75;5.20;;;;;;;14.50;74.99;102034.25;5094140;28;20048;-50
2021/06/10 03:37:31;;;;;;;8.35;4.85;;;;;;;14.48;74.95;102036.13;5095513;28;20043;-46
2021/06/10 03:39:59;;;;;;;9.25;5.15;;;;;;;14.48;75.12;102038.75;5098048;28;20044;-58
2021/06/10 03:42:26;;;;;;;10.15;4.60;;;;;;;14.52;75.29;102038.50;5094059;28;20398;-58
2021/06/10 03:44:53;;;;;;;7.80;5.00;;;;;;;14.47;75.13;102037.94;5094830;28;20123;-59
2021/06/10 03:47:21;;;;;;;8.95;4.90;;;;;;;14.47;75.79;102042.38;5087960;28;20043;-58
2021/06/10 03:49:48;;;;;;;9.68;5.40;;;;;;;14.45;75.81;102045.13;5101288;28;20498;-59
2021/06/10 03:52:15;;;;;;;7.57;4.65;;;;;;;14.42;75.60;102049.75;5094676;28;20047;-48
2021/06/10 03:54:41;;;;;;;8.90;5.15;;;;;;;14.35;75.88;102044.81;5098839;28;20081;-48
2021/06/10 03:57:09;;;;;;;8.43;5.13;;;;;;;14.46;76.42;102040.66;5109311;27;20058;-59
2021/06/10 03:59:36;;;;;;;9.45;5.03;;;;;;;14.46;76.33;102046.81;5117419;27;20043;-58
2021/06/10 04:02:03;;;;;;;8.63;4.63;;;;;;;14.52;76.62;102041.13;5135211;27;20469;-58
2021/06/10 04:04:30;;;;;;;7.35;4.65;;;;;;;14.46;77.24;102035.38;5135932;27;20063;-59
2021/06/10 04:06:58;;;;;;;10.70;5.35;;;;;;;14.50;77.41;102029.78;5122883;27;20039;-58
2021/06/10 04:09:24;;;;;;;8.93;5.40;;;;;;;14.51;77.61;102026.19;5133803;27;20405;-50
2021/06/10 04:11:51;;;;;;;8.73;5.57;;;;;;;14.51;77.60;102020.06;5135390;27;20061;-51
2021/06/10 04:14:18;;;;;;;8.50;5.28;;;;;;;14.46;77.83;102028.28;5135007;27;20095;-50
2021/06/10 04:16:45;;;;;;;8.68;5.70;;;;;;;14.53;77.39;102034.03;5135250;27;20103;-58
2021/06/10 04:19:13;;;;;;;8.65;5.80;;;;;;;14.49;77.76;102024.59;5134877;27;20047;-58
2021/06/10 04:21:40;;;;;;;9.75;5.63;;;;;;;14.50;77.46;102031.59;5135072;27;20039;-58
2021/06/10 04:24:07;;;;;;;9.27;5.93;;;;;;;14.54;76.96;102033.94;5109435;27;20042;-59
2021/06/10 04:26:34;;;;;;;10.50;6.63;;;;;;;14.53;76.73;102026.97;5116462;27;20047;-58
2021/06/10 04:29:00;;;;;;;9.68;6.20;;;;;;;14.58;77.06;102031.94;5142436;27;20539;-56
2021/06/10 04:31:27;;;;;;;9.82;6.50;;;;;;;14.57;77.47;102035.53;5116411;27;20371;-57
2021/06/10 04:33:54;;;;;;;10.98;6.47;;;;;;;14.62;77.56;102041.41;5117085;27;20043;-57
2021/06/10 04:36:21;;;;;;;9.52;6.03;;;;;;;14.62;77.64;102038.75;5123948;27;20073;-57
2021/06/10 04:38:49;;;;;;;8.98;5.93;;;;;;;14.68;77.70;102043.72;5134036;27;20047;-57
2021/06/10 04:41:16;;;;;;;9.85;6.35;;;;;;;14.68;77.75;102043.72;5137498;27;20096;-50
2021/06/10 04:43:43;;;;;;;8.80;5.97;;;;;;;14.79;77.65;102043.03;5134448;27;20058;-52
2021/06/10 04:46:10;;;;;;;10.50;6.40;;;;;;;14.82;77.65;102036.66;5134252;27;20390;-50
2021/06/10 04:48:37;;;;;;;9.82;6.60;;;;;;;14.83;77.71;102043.66;5115941;27;20039;-53
2021/06/10 04:51:05;;;;;;;10.75;6.82;;;;;;;14.86;77.83;102040.81;5116919;27;20390;-57
2021/06/10 04:53:32;;;;;;;10.48;6.57;;;;;;;14.90;77.40;102041.47;5134099;27;20058;-51
2021/06/10 04:55:59;;;;;;;10.98;6.65;;;;;;;14.94;77.38;102041.16;5137851;27;20104;-52
2021/06/10 04:58:25;;;;;;;12.25;7.32;;;;;;;14.98;77.17;102039.16;5134663;27;20565;-52
2021/06/10 05:00:52;;;;;;;9.48;6.55;;;;;;;15.03;76.53;102052.97;5133683;27;20058;-50
2021/06/10 05:03:23;;;;;;;9.88;7.03;;;;;;;15.06;76.02;102047.47;5115966;27;20078;-50
2021/06/10 05:05:50;;;;;;;12.32;7.53;;;;;;;15.13;75.51;102043.47;5141331;27;20043;-53
2021/06/10 05:08:17;;;;;;;10.88;6.95;;;;;;;15.19;75.49;102045.72;5116522;27;20054;-57
2021/06/10 05:10:44;;;;;;;11.45;7.45;;;;;;;15.26;73.78;102032.06;5115408;27;20043;-57
2021/06/10 05:13:11;;;;;;;10.60;7.70;;;;;;;15.32;73.02;102040.44;5134030;27;20405;-52
2021/06/10 05:15:37;;;;;;;14.55;8.30;;;;;;;15.41;73.75;102044.31;5134179;27;20100;-52
2021/06/10 05:18:05;;;;;;;14.98;8.90;;;;;;;15.47;72.71;102038.56;5134042;27;20073;-51
2021/06/10 05:20:32;;;;;;;13.07;9.13;;;;;;;15.56;72.63;102042.44;5116085;27;20039;-52
2021/06/10 05:22:59;;;;;;;13.05;8.35;;;;;;;15.65;71.39;102041.81;5133647;27;20413;-53
2021/06/10 05:25:25;;;;;;;13.35;8.45;;;;;;;15.71;71.47;102036.06;5134085;27;20057;-57
2021/06/10 05:27:52;;;;;;;14.45;9.05;;;;;;;15.80;72.27;102049.69;5115036;27;20075;-57
2021/06/10 05:30:20;;;;;;;14.95;8.70;;;;;;;15.89;72.18;102041.94;5133886;27;20067;-57
2021/06/10 05:32:47;;;;;;;12.13;8.43;;;;;;;15.97;72.81;102052.03;5115548;27;20039;-58
2021/06/10 05:35:14;;;;;;;13.57;8.43;;;;;;;16.05;72.48;102052.34;5105576;27;20055;-58
2021/06/10 05:37:41;;;;;;;13.48;8.95;;;;;;;16.15;72.03;102059.69;5115462;27;20043;-53
2021/06/10 05:40:09;;;;;;;13.25;8.65;;;;;;;16.26;72.41;102054.47;5136979;27;20039;-58
2021/06/10 05:42:36;;;;;;;12.70;8.57;;;;;;;16.35;71.88;102056.47;5123886;27;20571;-54
2021/06/10 05:45:04;;;;;;;12.90;8.63;;;;;;;16.46;71.56;102054.88;5115133;27;20054;-54
2021/06/10 05:47:31;;;;;;;13.20;8.25;;;;;;;16.56;71.60;102062.09;5115051;27;20146;-53
2021/06/10 05:49:58;;;;;;;15.80;8.35;;;;;;;16.70;71.11;102066.41;5132944;27;20047;-53
2021/06/10 05:52:25;;;;;;;14.60;9.00;;;;;;;16.83;70.56;102058.38;5114826;27;20398;-54
2021/06/10 05:54:52;;;;;;;16.52;9.25;;;;;;;16.94;70.18;102057.63;5115253;27;20057;-53
2021/06/10 05:57:19;;;;;;;13.65;9.27;;;;;;;17.06;69.20;102064.69;5118687;27;20471;-54
2021/06/10 05:59:49;;;;;;;12.93;10.02;;;;;;;17.19;69.02;102071.75;5119456;27;20039;-54
2021/06/10 06:02:16;;;;;;;11.65;9.20;;;;;;;17.35;68.21;102074.13;5112223;27;20046;-55
2021/06/10 06:04:43;;;;;;;14.07;9.43;;;;;;;17.46;68.48;102078.66;5117134;27;20111;-55
2021/06/10 06:07:11;;;;;;;14.68;9.45;;;;;;;17.59;68.53;102076.78;5114343;27;20047;-55
2021/06/10 06:09:38;;;;;;;15.95;9.45;;;;;;;17.71;67.45;102077.63;5112433;27;20047;-56
2021/06/10 06:12:10;;;;;;;13.77;10.10;;;;;;;17.88;67.95;102084.34;5112111;28;20040;-58
2021/06/10 06:14:41;;;;;;;14.80;9.55;;;;;;;18.03;67.12;102083.19;5111971;27;20051;-59
2021/06/10 06:17:09;;;;;;;14.93;10.10;;;;;;;18.21;66.83;102074.75;5112921;27;20043;-59
2021/06/10 06:19:36;;;;;;;13.25;9.63;;;;;;;18.37;66.10;102077.03;5092730;28;20565;-59
2021/06/10 06:22:05;;;;;;;14.45;10.40;;;;;;;18.55;65.41;102077.41;5111567;27;20046;-55
2021/06/10 06:24:32;;;;;;;15.27;11.00;;;;;;;18.69;65.32;102074.50;5109390;27;20047;-55
2021/06/10 06:26:59;;;;;;;13.88;8.73;;;;;;;18.81;65.75;102069.97;5112046;27;20053;-55
2021/06/10 06:29:26;;;;;;;14.60;9.90;;;;;;;19.03;64.03;102070.91;5094277;28;20478;-59
2021/06/10 06:31:53;;;;;;;14.70;10.07;;;;;;;19.24;63.30;102078.97;5110190;28;20097;-56
2021/06/10 06:34:20;;;;;;;12.60;9.18;;;;;;;19.34;62.90;102079.91;5110382;27;20040;-56
2021/06/10 06:36:47;;;;;;;14.10;9.25;;;;;;;19.49;63.01;102084.94;5104238;27;20047;-59
2021/06/10 06:39:15;;;;;;;11.98;8.88;;;;;;;19.62;62.28;102071.41;5119245;27;20044;-56
2021/06/10 06:41:42;;;;;;;11.88;8.85;;;;;;;19.74;61.94;102076.56;5094206;28;20051;-56
2021/06/10 06:44:09;;;;;;;16.85;9.98;;;;;;;19.93;61.39;102080.34;5109398;27;20055;-59
2021/06/10 06:46:36;;;;;;;13.82;10.32;;;;;;;20.11;59.24;102069.91;5098780;28;20055;-59
2021/06/10 06:49:04;;;;;;;12.02;9.73;;;;;;;20.25;59.40;102074.88;5111308;28;20093;-55
2021/06/10 06:51:31;;;;;;;15.23;10.38;;;;;;;20.40;58.36;102077.22;5124712;27;20404;-59
2021/06/10 06:53:58;;;;;;;14.35;9.40;;;;;;;20.51;57.59;102078.94;5113957;27;20047;-56
2021/06/10 06:56:25;;;;;;;14.55;10.90;;;;;;;20.69;57.32;102073.81;5132734;27;20477;-56
2021/06/10 06:58:53;;;;;;;13.73;10.38;;;;;;;20.69;57.63;102085.34;5151444;27;21152;-56
2021/06/10 07:01:20;;;;;;;13.38;9.70;;;;;;;20.89;58.11;102080.88;5153422;27;20042;-56
2021/06/10 07:03:48;;;;;;;15.57;9.43;;;;;;;21.04;57.47;102083.16;5135563;27;20058;-56
2021/06/10 07:06:15;;;;;;;12.60;9.38;;;;;;;21.24;56.99;102086.69;5153836;27;20072;-57
2021/06/10 07:08:42;;;;;;;12.38;9.05;;;;;;;21.41;56.14;102087.81;5135413;27;20046;-56
2021/06/10 07:11:09;;;;;;;12.50;8.55;;;;;;;21.58;55.46;102084.47;5154056;27;20051;-56
2021/06/10 07:13:36;;;;;;;13.15;9.18;;;;;;;21.70;55.08;102081.63;5153515;27;20073;-56
2021/06/10 07:16:03;;;;;;;11.57;7.93;;;;;;;21.92;55.59;102077.78;5152865;27;20532;-56
2021/06/10 07:18:30;;;;;;;12.68;7.30;;;;;;;22.15;54.92;102082.78;5132739;27;20099;-60
2021/06/10 07:20:57;;;;;;;15.15;6.95;;;;;;;22.35;51.94;102080.91;5152371;27;20065;-60
2021/06/10 07:23:24;;;;;;;10.88;6.70;;;;;;;22.53;51.68;102086.31;5153405;27;20043;-56
2021/06/10 07:25:51;;;;;;;8.95;5.88;;;;;;;22.69;49.62;102080.31;5153552;27;20053;-56
2021/06/10 07:28:18;;;;;;;7.70;4.85;;;;;;;22.86;49.32;102084.00;5116632;27;20047;-56
2021/06/10 07:30:45;;;;;;;7.80;4.93;;;;;;;23.01;48.00;102078.97;5116507;27;20039;-60
2021/06/10 07:33:12;;;;;;;8.43;4.55;;;;;;;23.23;47.90;102083.94;5153901;27;20049;-56
2021/06/10 07:35:39;;;;;;;7.18;4.63;;;;;;;23.39;46.62;102085.06;5153678;27;20359;-56
2021/06/10 07:38:09;;;;;;;6.65;3.67;;;;;;;23.62;45.57;102088.09;5101481;27;20485;-56
2021/06/10 07:40:38;;;;;;;6.30;3.42;;;;;;;23.74;42.81;102084.16;5133045;27;20054;-55
2021/06/10 07:43:05;;;;;;;6.47;2.97;;;;;;;23.98;43.79;102090.72;5151805;27;20043;-56
2021/06/10 07:45:32;;;;;;;6.18;3.67;;;;;;;24.16;43.46;102096.03;5153411;27;20046;-57
2021/06/10 07:47:59;;;;;;;6.85;2.95;;;;;;;24.28;41.25;102099.28;5153270;27;20038;-56
2021/06/10 07:50:26;;;;;;;4.78;2.42;;;;;;;24.37;39.00;102100.19;5118343;27;20522;-57
2021/06/10 07:52:54;;;;;;;3.28;1.65;;;;;;;24.59;36.69;102106.81;5134757;27;20042;-56
2021/06/10 07:55:21;;;;;;;4.05;2.03;;;;;;;24.71;37.57;102105.53;5118265;27;20042;-57
2021/06/10 07:57:49;;;;;;;3.28;1.80;;;;;;;24.88;36.75;102100.19;5134940;27;20082;-56
2021/06/10 08:00:17;;;;;;;4.03;1.83;;;;;;;25.01;37.99;102097.88;5156729;27;20400;-56
2021/06/10 08:02:44;;;;;;;6.35;2.10;;;;;;;25.17;38.19;102106.97;5119834;27;20111;-57
2021/06/10 08:05:12;;;;;;;4.72;1.90;;;;;;;25.29;37.49;102108.34;5138387;27;20095;-60
2021/06/10 08:07:42;;;;;;;3.15;1.90;;;;;;;25.54;37.99;102097.63;5156937;27;20051;-60
2021/06/10 08:10:11;;;;;;;3.55;2.05;;;;;;;25.66;37.29;102096.28;5121736;27;20042;-60
2021/06/10 08:12:43;;;;;;;5.50;2.00;;;;;;;25.77;36.59;102100.47;5123281;27;20030;-60
2021/06/10 08:15:10;;;;;;;3.85;2.30;;;;;;;26.04;37.52;102099.28;5138935;27;20501;-60
2021/06/10 08:17:37;;;;;;;5.00;2.20;;;;;;;26.15;37.33;102098.88;5138318;27;20058;-60
2021/06/10 08:20:06;;;;;;;6.03;2.53;;;;;;;26.38;36.37;102087.34;5155463;27;20042;-61
2021/06/10 08:22:33;;;;;;;5.00;2.35;;;;;;;26.43;36.70;102095.75;5153329;27;20046;-60
2021/06/10 08:24:59;;;;;;;5.32;2.53;;;;;;;26.60;37.03;102103.75;5138693;27;20050;-61
2021/06/10 08:27:26;;;;;;;5.70;2.50;;;;;;;26.66;35.99;102103.88;5137920;27;20051;-60
2021/06/10 08:29:53;;;;;;;6.45;3.15;;;;;;;26.59;36.01;102104.78;5102909;27;20074;-60
2021/06/10 08:32:20;;;;;;;5.53;3.15;;;;;;;26.76;37.08;102102.88;5155878;27;20104;-60
2021/06/10 08:34:47;;;;;;;6.55;3.90;;;;;;;26.77;36.25;102102.69;5156657;27;20053;-60
2021/06/10 08:37:13;;;;;;;5.85;3.55;;;;;;;27.06;37.01;102111.13;5138430;27;20050;-60
2021/06/10 08:39:40;;;;;;;6.22;3.90;;;;;;;27.05;35.99;102107.59;5154944;27;20107;-60
2021/06/10 08:42:07;;;;;;;9.15;4.93;;;;;;;27.05;37.12;102110.28;5136768;27;20493;-60
2021/06/10 08:44:35;;;;;;;6.22;3.60;;;;;;;27.21;37.51;102112.00;5156661;27;20386;-60
2021/06/10 08:47:07;;;;;;;7.88;3.92;;;;;;;27.48;35.82;102112.53;5155388;27;20509;-60
2021/06/10 08:49:34;;;;;;;6.70;4.07;;;;;;;27.53;35.77;102111.97;5136742;27;20432;-61
2021/06/10 08:52:05;;;;;;;8.18;4.85;;;;;;;27.55;35.31;102108.06;5156359;27;20044;-56
2021/06/10 08:54:33;;;;;;;7.63;3.97;;;;;;;27.73;36.00;102099.66;5156392;27;20061;-57
2021/06/10 08:57:01;;;;;;;8.05;4.60;;;;;;;28.05;35.50;102107.63;5137773;27;20412;-56
2021/06/10 08:59:28;;;;;;;11.65;5.60;;;;;;;27.91;33.65;102111.94;5137892;27;20039;-56
2021/06/10 09:01:55;;;;;;;8.30;4.68;;;;;;;27.96;34.56;102117.63;5135717;27;20066;-57
2021/06/10 09:04:22;;;;;;;7.78;3.90;;;;;;;27.93;36.14;102116.13;5136100;27;20078;-56
2021/06/10 09:06:51;;;;;;;7.82;4.80;;;;;;;28.26;35.05;102112.28;5153883;27;20505;-57
2021/06/10 09:09:31;;;;;;;9.40;4.88;;;;;;;28.25;35.39;102113.28;5153945;27;20378;-57
2021/06/10 09:12:05;;;;;;;6.97;3.92;;;;;;;28.59;35.44;102114.56;5137154;27;20095;-61
2021/06/10 09:14:55;;;;;;;7.97;4.85;;;;;;;28.63;33.67;102115.84;5155929;27;20039;-61
2021/06/10 09:17:33;;;;;;;7.07;4.75;;;;;;;28.74;33.96;102118.13;5154220;27;20039;-61
2021/06/10 09:20:00;;;;;;;8.82;4.93;;;;;;;28.88;33.55;102110.13;5155004;27;20050;-61
2021/06/10 09:22:39;;;;;;;6.22;4.25;;;;;;;28.99;33.90;102109.66;5139553;27;20049;-62
2021/06/10 09:25:11;;;;;;;8.30;4.47;;;;;;;29.12;33.06;102109.78;5136470;27;20047;-61
2021/06/10 09:27:54;;;;;;;8.33;4.50;;;;;;;29.17;32.52;102101.91;5136278;27;20078;-62
2021/06/10 09:30:31;;;;;;;6.93;4.07;;;;;;;29.40;32.16;102109.00;5137149;27;20058;-57
2021/06/10 09:33:00;;;;;;;7.95;3.72;;;;;;;29.33;32.43;102106.25;5155182;27;20085;-57
2021/06/10 09:35:29;;;;;;;5.32;3.30;;;;;;;29.51;33.45;102107.66;5131148;27;20100;-62
2021/06/10 09:38:04;;;;;;;5.95;3.53;;;;;;;29.56;32.06;102115.19;5145804;27;20039;-62
2021/06/10 09:40:31;;;;;;;6.47;3.63;;;;;;;29.73;30.56;102110.31;5124191;27;20035;-62
2021/06/10 09:42:58;;;;;;;8.10;4.72;;;;;;;29.60;30.00;102117.31;5145062;27;20142;-61
2021/06/10 09:45:28;;;;;;;5.53;3.38;;;;;;;29.61;31.19;102101.88;5116510;27;20416;-62
2021/06/10 09:47:59;;;;;;;7.93;3.85;;;;;;;29.52;30.77;102095.78;5134389;27;20066;-62
2021/06/10 09:50:37;;;;;;;4.72;3.08;;;;;;;29.71;31.13;102096.13;5134571;27;20074;-58
2021/06/10 09:53:08;;;;;;;8.30;3.38;;;;;;;29.98;31.53;102100.72;5137570;27;20117;-57
2021/06/10 09:55:40;;;;;;;7.05;4.45;;;;;;;29.98;30.09;102099.88;5120465;27;20043;-62
2021/06/10 09:58:13;;;;;;;6.45;3.67;;;;;;;30.14;30.99;102101.41;5140432;27;20051;-62
2021/06/10 10:00:49;;;;;;;;;;;;;;;30.21;29.63;102104.16;5135494;27;20058;-56
2021/06/10 10:03:44;;;;;;;5.88;3.00;;;;;;;29.92;29.65;102095.25;5153851;27;19919;-62
2021/06/10 10:06:21;;;;;;;5.97;3.25;;;;;;;30.16;30.47;102094.75;5136341;27;20667;-62
2021/06/10 10:08:53;;;;;;;6.88;3.38;;;;;;;30.38;31.16;102091.94;5152528;27;20661;-62
2021/06/10 10:11:23;;;;;;;5.93;3.28;;;;;;;30.50;30.64;102089.50;5118508;27;20524;-62
2021/06/10 10:13:52;;;;;;;5.18;3.33;;;;;;;30.37;30.31;102094.88;5116716;27;20103;-57
2021/06/10 10:16:33;;;;;;;7.25;4.05;;;;;;;29.99;30.29;102098.84;5119126;27;20065;-57
2021/06/10 10:19:04;;;;;;;9.30;5.22;;;;;;;29.88;28.95;102102.13;5152912;27;20045;-57
2021/06/10 10:21:36;;;;;;;6.88;3.95;;;;;;;30.02;30.47;102090.28;5132205;27;20429;-57
2021/06/10 10:24:06;;;;;;;6.10;3.58;;;;;;;30.14;29.71;102090.56;5143448;27;20043;-62
2021/06/10 10:26:34;;;;;;;5.75;3.47;;;;;;;30.04;30.10;102090.09;5145945;27;20102;-62
2021/06/10 10:29:03;;;;;;;6.20;3.60;;;;;;;29.97;30.86;102085.47;5126626;27;20046;-61
2021/06/10 10:31:30;;;;;;;6.45;3.92;;;;;;;29.96;30.06;102088.41;5126738;27;20560;-62
2021/06/10 10:33:57;;;;;;;7.13;3.75;;;;;;;30.11;29.83;102091.81;5141179;27;20050;-62
2021/06/10 10:36:31;;;;;;;6.05;3.28;;;;;;;30.34;29.68;102087.97;5140028;27;20043;-62
2021/06/10 10:39:09;;;;;;;7.15;3.65;;;;;;;30.23;28.63;102089.38;5121245;27;20050;-62
2021/06/10 10:41:53;;;;;;;5.30;3.13;;;;;;;30.44;29.71;102085.72;5152627;27;20066;-62
2021/06/10 10:44:26;;;;;;;7.70;3.40;;;;;;;30.47;29.15;102090.78;5136724;27;20442;-62
2021/06/10 10:46:59;;;;;;;5.65;3.03;;;;;;;30.40;28.93;102084.44;5134255;27;20111;-62
2021/06/10 10:49:29;;;;;;;6.05;3.35;;;;;;;30.48;28.73;102084.28;5095718;27;20118;-62
2021/06/10 10:52:14;;;;;;;4.75;2.80;;;;;;;30.47;29.72;102081.78;5124127;27;20092;-62
2021/06/10 10:54:51;;;;;;;4.60;2.58;;;;;;;30.93;29.61;102088.38;5131659;27;20067;-57
2021/06/10 10:57:30;;;;;;;6.32;3.20;;;;;;;30.82;28.26;102087.09;5114925;28;20113;-57
2021/06/10 10:59:58;;;;;;;5.75;3.30;;;;;;;31.08;27.09;102080.91;5133199;27;20043;-63
2021/06/10 11:02:27;;;;;;;6.65;3.90;;;;;;;31.30;27.96;102077.97;5113605;28;20035;-62
2021/06/10 11:05:09;;;;;;;7.55;3.47;;;;;;;31.42;28.46;102073.59;5114983;27;20051;-62
2021/06/10 11:07:36;;;;;;;7.45;3.75;;;;;;;31.55;27.00;102077.34;5136698;27;20051;-62
2021/06/10 11:10:20;;;;;;;6.10;3.42;;;;;;;31.46;27.48;102079.44;5132392;28;20050;-62
2021/06/10 11:12:51;;;;;;;7.40;3.80;;;;;;;31.22;28.40;102070.88;5115059;28;20047;-55
2021/06/10 11:15:26;;;;;;;7.05;3.78;;;;;;;31.19;27.96;102069.41;5136143;27;20066;-55
2021/06/10 11:17:57;;;;;;;5.63;3.50;;;;;;;31.46;27.59;102066.69;5142906;27;20390;-60
2021/06/10 11:20:39;;;;;;;8.68;3.97;;;;;;;31.30;26.24;102069.84;5134657;27;20047;-62
2021/06/10 11:23:25;;;;;;;6.13;3.88;;;;;;;31.71;26.61;102060.63;5132259;28;20419;-62
2021/06/10 11:25:53;;;;;;;6.00;3.40;;;;;;;31.53;26.33;102066.69;5113200;28;20054;-61
2021/06/10 11:28:22;;;;;;;5.05;3.10;;;;;;;31.73;24.95;102058.53;5114723;28;20550;-57
2021/06/10 11:30:51;;;;;;;3.50;2.30;;;;;;;31.94;24.69;102051.16;5114675;28;20122;-57
2021/06/10 11:33:27;;;;;;;6.60;2.88;;;;;;;32.24;24.55;102047.94;5134981;27;20047;-55